sensor_id;sensor_type;location;lat;lon;timestamp;temperature;humidity
6538;DHT22;3302;52.508;13.454;2023-12-14T00:00:23;4.30;99.90
6538;DHT22;3302;52.508;13.454;2023-12-14T00:02:49;4.30;99.90
6538;DHT22;3302;52.508;13.454;2023-12-14T00:05:14;4.40;99.90
6538;DHT22;3302;52.508;13.454;2023-12-14T00:07:40;4.40;99.90
6538;DHT22;3302;52.508;13.454;2023-12-14T00:10:07;4.30;99.90
6538;DHT22;3302;52.508;13.454;2023-12-14T00:12:33;4.30;99.90
6538;DHT22;3302;52.508;13.454;2023-12-14T00:14:58;4.30;99.90
6538;DHT22;3302;52.508;13.454;2023-12-14T00:17:24;4.30;99.90
6538;DHT22;3302;52.508;13.454;2023-12-14T00:19:50;4.30;99.90
6538;DHT22;3302;52.508;13.454;2023-12-14T00:22:16;4.30;99.90
6538;DHT22;3302;52.508;13.454;2023-12-14T00:24:42;4.30;99.90
6538;DHT22;3302;52.508;13.454;2023-12-14T00:27:08;4.30;99.90
6538;DHT22;3302;52.508;13.454;2023-12-14T00:29:34;4.30;99.90
6538;DHT22;3302;52.508;13.454;2023-12-14T00:32:01;4.30;99.90
6538;DHT22;3302;52.508;13.454;2023-12-14T00:34:27;4.20;99.90
6538;DHT22;3302;52.508;13.454;2023-12-14T00:36:52;4.20;99.90
6538;DHT22;3302;52.508;13.454;2023-12-14T00:39:18;4.20;99.90
6538;DHT22;3302;52.508;13.454;2023-12-14T00:41:44;4.20;99.90
6538;DHT22;3302;52.508;13.454;2023-12-14T00:44:10;4.20;99.90
6538;DHT22;3302;52.508;13.454;2023-12-14T00:46:36;4.10;99.90
6538;DHT22;3302;52.508;13.454;2023-12-14T00:49:01;4.10;99.90
6538;DHT22;3302;52.508;13.454;2023-12-14T00:51:27;4.20;99.90
6538;DHT22;3302;52.508;13.454;2023-12-14T00:53:53;4.20;99.90
6538;DHT22;3302;52.508;13.454;2023-12-14T00:56:19;4.20;99.90
6538;DHT22;3302;52.508;13.454;2023-12-14T00:58:45;4.20;99.90
6538;DHT22;3302;52.508;13.454;2023-12-14T01:01:12;4.20;99.90
6538;DHT22;3302;52.508;13.454;2023-12-14T01:03:38;4.20;99.90
6538;DHT22;3302;52.508;13.454;2023-12-14T01:06:04;4.30;99.90
6538;DHT22;3302;52.508;13.454;2023-12-14T01:08:29;4.30;99.90
6538;DHT22;3302;52.508;13.454;2023-12-14T01:10:55;4.30;99.90
6538;DHT22;3302;52.508;13.454;2023-12-14T01:13:21;4.20;99.90
6538;DHT22;3302;52.508;13.454;2023-12-14T01:15:47;4.20;99.90
6538;DHT22;3302;52.508;13.454;2023-12-14T01:18:12;4.10;99.90
6538;DHT22;3302;52.508;13.454;2023-12-14T01:20:38;4.10;99.90
6538;DHT22;3302;52.508;13.454;2023-12-14T01:23:04;4.10;99.90
6538;DHT22;3302;52.508;13.454;2023-12-14T01:25:30;4.10;99.90
6538;DHT22;3302;52.508;13.454;2023-12-14T01:27:56;4.10;99.90
6538;DHT22;3302;52.508;13.454;2023-12-14T01:30:22;4.10;99.90
6538;DHT22;3302;52.508;13.454;2023-12-14T01:32:47;4.10;99.90
6538;DHT22;3302;52.508;13.454;2023-12-14T01:35:13;4.10;99.90
6538;DHT22;3302;52.508;13.454;2023-12-14T01:37:39;4.10;99.90
6538;DHT22;3302;52.508;13.454;2023-12-14T01:40:06;4.10;99.90
6538;DHT22;3302;52.508;13.454;2023-12-14T01:42:31;4.00;99.90
6538;DHT22;3302;52.508;13.454;2023-12-14T01:44:57;3.90;99.90
6538;DHT22;3302;52.508;13.454;2023-12-14T01:47:23;3.90;99.90
6538;DHT22;3302;52.508;13.454;2023-12-14T01:49:49;3.90;99.90
6538;DHT22;3302;52.508;13.454;2023-12-14T01:52:15;3.90;99.90
6538;DHT22;3302;52.508;13.454;2023-12-14T01:54:41;3.90;99.90
6538;DHT22;3302;52.508;13.454;2023-12-14T01:57:07;3.80;99.90
6538;DHT22;3302;52.508;13.454;2023-12-14T01:59:32;3.80;99.90
6538;DHT22;3302;52.508;13.454;2023-12-14T02:01:58;3.90;99.90
6538;DHT22;3302;52.508;13.454;2023-12-14T02:04:26;3.90;99.90
6538;DHT22;3302;52.508;13.454;2023-12-14T02:06:51;3.80;99.90
6538;DHT22;3302;52.508;13.454;2023-12-14T02:09:17;3.80;99.90
6538;DHT22;3302;52.508;13.454;2023-12-14T02:11:43;3.80;99.90
6538;DHT22;3302;52.508;13.454;2023-12-14T02:14:09;3.80;99.90
6538;DHT22;3302;52.508;13.454;2023-12-14T02:16:36;3.80;99.90
6538;DHT22;3302;52.508;13.454;2023-12-14T02:19:04;3.70;99.90
6538;DHT22;3302;52.508;13.454;2023-12-14T02:21:30;3.70;99.90
6538;DHT22;3302;52.508;13.454;2023-12-14T02:23:56;3.70;99.90
6538;DHT22;3302;52.508;13.454;2023-12-14T02:26:22;3.70;99.90
6538;DHT22;3302;52.508;13.454;2023-12-14T02:28:48;3.60;99.90
6538;DHT22;3302;52.508;13.454;2023-12-14T02:31:14;3.60;99.90
6538;DHT22;3302;52.508;13.454;2023-12-14T02:33:40;3.60;99.90
6538;DHT22;3302;52.508;13.454;2023-12-14T02:36:06;3.70;99.90
6538;DHT22;3302;52.508;13.454;2023-12-14T02:38:32;3.70;99.90
6538;DHT22;3302;52.508;13.454;2023-12-14T02:40:57;3.60;99.90
6538;DHT22;3302;52.508;13.454;2023-12-14T02:43:23;3.60;99.90
6538;DHT22;3302;52.508;13.454;2023-12-14T02:45:49;3.60;99.90
6538;DHT22;3302;52.508;13.454;2023-12-14T02:48:15;3.60;99.90
6538;DHT22;3302;52.508;13.454;2023-12-14T02:50:41;3.60;99.90
6538;DHT22;3302;52.508;13.454;2023-12-14T02:53:07;3.60;99.90
6538;DHT22;3302;52.508;13.454;2023-12-14T02:55:33;3.70;99.90
6538;DHT22;3302;52.508;13.454;2023-12-14T02:57:58;3.70;99.90
6538;DHT22;3302;52.508;13.454;2023-12-14T03:00:24;3.70;99.90
6538;DHT22;3302;52.508;13.454;2023-12-14T03:02:50;3.60;99.90
6538;DHT22;3302;52.508;13.454;2023-12-14T03:05:16;3.70;99.90
6538;DHT22;3302;52.508;13.454;2023-12-14T03:07:42;3.70;99.90
6538;DHT22;3302;52.508;13.454;2023-12-14T03:10:08;3.70;99.90
6538;DHT22;3302;52.508;13.454;2023-12-14T03:12:34;3.70;99.90
6538;DHT22;3302;52.508;13.454;2023-12-14T03:15:00;3.60;99.90
6538;DHT22;3302;52.508;13.454;2023-12-14T03:17:26;3.60;99.90
6538;DHT22;3302;52.508;13.454;2023-12-14T03:19:51;3.60;99.90
6538;DHT22;3302;52.508;13.454;2023-12-14T03:22:17;3.80;99.90
6538;DHT22;3302;52.508;13.454;2023-12-14T03:24:43;3.70;99.90
6538;DHT22;3302;52.508;13.454;2023-12-14T03:27:09;3.80;99.90
6538;DHT22;3302;52.508;13.454;2023-12-14T03:29:35;3.90;99.90
6538;DHT22;3302;52.508;13.454;2023-12-14T03:32:01;3.70;99.90
6538;DHT22;3302;52.508;13.454;2023-12-14T03:34:26;3.80;99.90
6538;DHT22;3302;52.508;13.454;2023-12-14T03:36:52;3.70;99.90
6538;DHT22;3302;52.508;13.454;2023-12-14T03:39:18;3.70;99.90
6538;DHT22;3302;52.508;13.454;2023-12-14T03:41:44;3.70;99.90
6538;DHT22;3302;52.508;13.454;2023-12-14T03:44:10;3.60;99.90
6538;DHT22;3302;52.508;13.454;2023-12-14T03:46:36;3.70;99.90
6538;DHT22;3302;52.508;13.454;2023-12-14T03:49:03;3.60;99.90
6538;DHT22;3302;52.508;13.454;2023-12-14T03:51:30;3.70;99.90
6538;DHT22;3302;52.508;13.454;2023-12-14T03:53:55;3.70;99.90
6538;DHT22;3302;52.508;13.454;2023-12-14T03:56:21;3.60;99.90
6538;DHT22;3302;52.508;13.454;2023-12-14T03:58:47;3.60;99.90
6538;DHT22;3302;52.508;13.454;2023-12-14T04:01:20;3.60;99.90
6538;DHT22;3302;52.508;13.454;2023-12-14T04:03:46;3.60;99.90
6538;DHT22;3302;52.508;13.454;2023-12-14T04:06:13;3.60;99.90
6538;DHT22;3302;52.508;13.454;2023-12-14T04:08:39;3.80;99.90
6538;DHT22;3302;52.508;13.454;2023-12-14T04:11:05;3.80;99.90
6538;DHT22;3302;52.508;13.454;2023-12-14T04:13:31;3.70;99.90
6538;DHT22;3302;52.508;13.454;2023-12-14T04:15:57;3.60;99.90
6538;DHT22;3302;52.508;13.454;2023-12-14T04:18:23;3.70;99.90
6538;DHT22;3302;52.508;13.454;2023-12-14T04:20:50;3.70;99.90
6538;DHT22;3302;52.508;13.454;2023-12-14T04:23:16;3.70;99.90
6538;DHT22;3302;52.508;13.454;2023-12-14T04:25:42;3.70;99.90
6538;DHT22;3302;52.508;13.454;2023-12-14T04:28:08;3.60;99.90
6538;DHT22;3302;52.508;13.454;2023-12-14T04:30:34;3.70;99.90
6538;DHT22;3302;52.508;13.454;2023-12-14T04:32:59;3.70;99.90
6538;DHT22;3302;52.508;13.454;2023-12-14T04:35:25;3.70;99.90
6538;DHT22;3302;52.508;13.454;2023-12-14T04:37:51;3.60;99.90
6538;DHT22;3302;52.508;13.454;2023-12-14T04:40:17;3.60;99.90
6538;DHT22;3302;52.508;13.454;2023-12-14T04:42:43;3.60;99.90
6538;DHT22;3302;52.508;13.454;2023-12-14T04:45:08;3.70;99.90
6538;DHT22;3302;52.508;13.454;2023-12-14T04:47:35;3.60;99.90
6538;DHT22;3302;52.508;13.454;2023-12-14T04:50:02;3.70;99.90
6538;DHT22;3302;52.508;13.454;2023-12-14T04:52:28;3.60;99.90
6538;DHT22;3302;52.508;13.454;2023-12-14T04:54:54;3.60;99.90
6538;DHT22;3302;52.508;13.454;2023-12-14T04:57:19;3.70;99.90
6538;DHT22;3302;52.508;13.454;2023-12-14T04:59:45;3.70;99.90
6538;DHT22;3302;52.508;13.454;2023-12-14T05:02:11;3.80;99.90
6538;DHT22;3302;52.508;13.454;2023-12-14T05:04:37;3.80;99.90
6538;DHT22;3302;52.508;13.454;2023-12-14T05:07:03;3.70;99.90
6538;DHT22;3302;52.508;13.454;2023-12-14T05:09:29;3.80;99.90
6538;DHT22;3302;52.508;13.454;2023-12-14T05:11:54;3.80;99.90
6538;DHT22;3302;52.508;13.454;2023-12-14T05:14:20;3.70;99.90
6538;DHT22;3302;52.508;13.454;2023-12-14T05:16:46;3.70;99.90
6538;DHT22;3302;52.508;13.454;2023-12-14T05:19:12;3.70;99.90
6538;DHT22;3302;52.508;13.454;2023-12-14T05:21:39;3.70;99.90
6538;DHT22;3302;52.508;13.454;2023-12-14T05:24:05;3.60;99.90
6538;DHT22;3302;52.508;13.454;2023-12-14T05:26:31;3.70;99.90
6538;DHT22;3302;52.508;13.454;2023-12-14T05:28:56;3.60;99.90
6538;DHT22;3302;52.508;13.454;2023-12-14T05:31:22;3.60;99.90
6538;DHT22;3302;52.508;13.454;2023-12-14T05:33:48;3.80;99.90
6538;DHT22;3302;52.508;13.454;2023-12-14T05:36:14;3.70;99.90
6538;DHT22;3302;52.508;13.454;2023-12-14T05:38:40;3.70;99.90
6538;DHT22;3302;52.508;13.454;2023-12-14T05:41:07;3.60;99.90
6538;DHT22;3302;52.508;13.454;2023-12-14T05:43:33;3.60;99.90
6538;DHT22;3302;52.508;13.454;2023-12-14T05:45:59;3.80;99.90
6538;DHT22;3302;52.508;13.454;2023-12-14T05:48:24;3.90;99.90
6538;DHT22;3302;52.508;13.454;2023-12-14T05:50:52;3.80;99.90
6538;DHT22;3302;52.508;13.454;2023-12-14T05:53:18;3.70;99.90
6538;DHT22;3302;52.508;13.454;2023-12-14T05:55:44;3.80;99.90
6538;DHT22;3302;52.508;13.454;2023-12-14T05:58:10;3.80;99.90
6538;DHT22;3302;52.508;13.454;2023-12-14T06:00:36;3.70;99.90
6538;DHT22;3302;52.508;13.454;2023-12-14T06:03:02;3.80;99.90
6538;DHT22;3302;52.508;13.454;2023-12-14T06:05:28;3.80;99.90
6538;DHT22;3302;52.508;13.454;2023-12-14T06:07:54;3.80;99.90
6538;DHT22;3302;52.508;13.454;2023-12-14T06:10:20;3.70;99.90
6538;DHT22;3302;52.508;13.454;2023-12-14T06:12:47;3.70;99.90
6538;DHT22;3302;52.508;13.454;2023-12-14T06:15:13;3.80;99.90
6538;DHT22;3302;52.508;13.454;2023-12-14T06:17:39;3.90;99.90
6538;DHT22;3302;52.508;13.454;2023-12-14T06:20:07;3.80;99.90
6538;DHT22;3302;52.508;13.454;2023-12-14T06:22:36;3.80;99.90
6538;DHT22;3302;52.508;13.454;2023-12-14T06:25:02;3.70;99.90
6538;DHT22;3302;52.508;13.454;2023-12-14T06:27:29;3.70;99.90
6538;DHT22;3302;52.508;13.454;2023-12-14T06:29:55;3.70;99.90
6538;DHT22;3302;52.508;13.454;2023-12-14T06:32:21;3.80;99.90
6538;DHT22;3302;52.508;13.454;2023-12-14T06:34:47;3.80;99.90
6538;DHT22;3302;52.508;13.454;2023-12-14T06:37:13;3.80;99.90
6538;DHT22;3302;52.508;13.454;2023-12-14T06:39:43;3.80;99.90
6538;DHT22;3302;52.508;13.454;2023-12-14T06:42:09;3.80;99.90
6538;DHT22;3302;52.508;13.454;2023-12-14T06:44:35;3.90;99.90
6538;DHT22;3302;52.508;13.454;2023-12-14T06:47:01;3.90;99.90
6538;DHT22;3302;52.508;13.454;2023-12-14T06:49:27;3.80;99.90
6538;DHT22;3302;52.508;13.454;2023-12-14T06:51:52;3.80;99.90
6538;DHT22;3302;52.508;13.454;2023-12-14T06:54:18;3.80;99.90
6538;DHT22;3302;52.508;13.454;2023-12-14T06:56:44;3.80;99.90
6538;DHT22;3302;52.508;13.454;2023-12-14T06:59:10;3.80;99.90
6538;DHT22;3302;52.508;13.454;2023-12-14T07:01:36;3.80;99.90
6538;DHT22;3302;52.508;13.454;2023-12-14T07:04:02;3.80;99.90
6538;DHT22;3302;52.508;13.454;2023-12-14T07:06:31;3.80;99.90
6538;DHT22;3302;52.508;13.454;2023-12-14T07:08:56;3.80;99.90
6538;DHT22;3302;52.508;13.454;2023-12-14T07:11:22;3.80;99.90
6538;DHT22;3302;52.508;13.454;2023-12-14T07:13:48;3.80;99.90
6538;DHT22;3302;52.508;13.454;2023-12-14T07:16:14;3.70;99.90
6538;DHT22;3302;52.508;13.454;2023-12-14T07:18:42;3.80;99.90
6538;DHT22;3302;52.508;13.454;2023-12-14T07:21:08;3.90;99.90
6538;DHT22;3302;52.508;13.454;2023-12-14T07:23:34;3.90;99.90
6538;DHT22;3302;52.508;13.454;2023-12-14T07:26:00;3.80;99.90
6538;DHT22;3302;52.508;13.454;2023-12-14T07:28:26;3.90;99.90
6538;DHT22;3302;52.508;13.454;2023-12-14T07:30:52;3.80;99.90
6538;DHT22;3302;52.508;13.454;2023-12-14T07:33:18;3.90;99.90
6538;DHT22;3302;52.508;13.454;2023-12-14T07:35:44;4.00;99.90
6538;DHT22;3302;52.508;13.454;2023-12-14T07:38:10;3.90;99.90
6538;DHT22;3302;52.508;13.454;2023-12-14T07:40:36;3.80;99.90
6538;DHT22;3302;52.508;13.454;2023-12-14T07:43:04;3.90;99.90
6538;DHT22;3302;52.508;13.454;2023-12-14T07:45:30;3.90;99.90
6538;DHT22;3302;52.508;13.454;2023-12-14T07:47:56;3.90;99.90
6538;DHT22;3302;52.508;13.454;2023-12-14T07:50:22;3.80;99.90
6538;DHT22;3302;52.508;13.454;2023-12-14T07:52:47;3.80;99.90
6538;DHT22;3302;52.508;13.454;2023-12-14T07:55:13;3.80;99.90
6538;DHT22;3302;52.508;13.454;2023-12-14T07:57:39;3.80;99.90
6538;DHT22;3302;52.508;13.454;2023-12-14T08:00:06;3.80;99.90
6538;DHT22;3302;52.508;13.454;2023-12-14T08:02:34;3.80;99.90
6538;DHT22;3302;52.508;13.454;2023-12-14T08:05:00;3.90;99.90
6538;DHT22;3302;52.508;13.454;2023-12-14T08:07:26;3.90;99.90
6538;DHT22;3302;52.508;13.454;2023-12-14T08:09:58;3.90;99.90
6538;DHT22;3302;52.508;13.454;2023-12-14T08:12:24;3.80;99.90
6538;DHT22;3302;52.508;13.454;2023-12-14T08:14:50;3.80;99.90
6538;DHT22;3302;52.508;13.454;2023-12-14T08:17:16;3.80;99.90
6538;DHT22;3302;52.508;13.454;2023-12-14T08:19:42;3.90;99.90
6538;DHT22;3302;52.508;13.454;2023-12-14T08:22:10;3.80;99.90
6538;DHT22;3302;52.508;13.454;2023-12-14T08:24:40;3.90;99.90
6538;DHT22;3302;52.508;13.454;2023-12-14T08:27:05;4.00;99.90
6538;DHT22;3302;52.508;13.454;2023-12-14T08:29:31;3.90;99.90
6538;DHT22;3302;52.508;13.454;2023-12-14T08:31:57;3.90;99.90
6538;DHT22;3302;52.508;13.454;2023-12-14T08:34:25;3.90;99.90
6538;DHT22;3302;52.508;13.454;2023-12-14T08:36:51;4.00;99.90
6538;DHT22;3302;52.508;13.454;2023-12-14T08:39:17;4.00;99.90
6538;DHT22;3302;52.508;13.454;2023-12-14T08:41:43;4.00;99.90
6538;DHT22;3302;52.508;13.454;2023-12-14T08:44:10;4.10;99.90
6538;DHT22;3302;52.508;13.454;2023-12-14T08:46:44;4.00;99.90
6538;DHT22;3302;52.508;13.454;2023-12-14T08:49:11;4.00;99.90
6538;DHT22;3302;52.508;13.454;2023-12-14T08:51:38;4.00;99.90
6538;DHT22;3302;52.508;13.454;2023-12-14T08:54:05;4.00;99.90
6538;DHT22;3302;52.508;13.454;2023-12-14T08:56:31;4.00;99.90
6538;DHT22;3302;52.508;13.454;2023-12-14T08:58:57;4.10;99.90
6538;DHT22;3302;52.508;13.454;2023-12-14T09:01:25;4.10;99.90
6538;DHT22;3302;52.508;13.454;2023-12-14T09:03:51;4.10;99.90
6538;DHT22;3302;52.508;13.454;2023-12-14T09:06:17;4.10;99.90
6538;DHT22;3302;52.508;13.454;2023-12-14T09:08:46;4.10;99.90
6538;DHT22;3302;52.508;13.454;2023-12-14T09:11:12;4.00;99.90
6538;DHT22;3302;52.508;13.454;2023-12-14T09:13:38;4.10;99.90
6538;DHT22;3302;52.508;13.454;2023-12-14T09:16:04;4.10;99.90
6538;DHT22;3302;52.508;13.454;2023-12-14T09:18:30;4.10;99.90
6538;DHT22;3302;52.508;13.454;2023-12-14T09:20:56;4.10;99.90
6538;DHT22;3302;52.508;13.454;2023-12-14T09:23:22;4.10;99.90
6538;DHT22;3302;52.508;13.454;2023-12-14T09:25:48;4.20;99.90
6538;DHT22;3302;52.508;13.454;2023-12-14T09:28:15;4.20;99.90
6538;DHT22;3302;52.508;13.454;2023-12-14T09:30:41;4.10;99.90
6538;DHT22;3302;52.508;13.454;2023-12-14T09:33:07;4.10;99.90
6538;DHT22;3302;52.508;13.454;2023-12-14T09:35:35;4.10;99.90
6538;DHT22;3302;52.508;13.454;2023-12-14T09:38:03;4.20;99.90
6538;DHT22;3302;52.508;13.454;2023-12-14T09:40:29;4.20;99.90
6538;DHT22;3302;52.508;13.454;2023-12-14T09:42:56;4.20;99.90
6538;DHT22;3302;52.508;13.454;2023-12-14T09:45:26;4.20;99.90
6538;DHT22;3302;52.508;13.454;2023-12-14T09:47:53;4.20;99.90
6538;DHT22;3302;52.508;13.454;2023-12-14T09:50:20;4.20;99.90
6538;DHT22;3302;52.508;13.454;2023-12-14T09:52:46;4.10;99.90
6538;DHT22;3302;52.508;13.454;2023-12-14T09:55:15;4.10;99.90
6538;DHT22;3302;52.508;13.454;2023-12-14T09:57:41;4.20;99.90
6538;DHT22;3302;52.508;13.454;2023-12-14T10:00:07;4.20;99.90
6538;DHT22;3302;52.508;13.454;2023-12-14T10:02:37;4.30;99.90
6538;DHT22;3302;52.508;13.454;2023-12-14T10:05:03;4.30;99.90
6538;DHT22;3302;52.508;13.454;2023-12-14T10:07:30;4.30;99.90
6538;DHT22;3302;52.508;13.454;2023-12-14T10:10:13;4.30;99.90
6538;DHT22;3302;52.508;13.454;2023-12-14T10:12:52;4.30;99.90
6538;DHT22;3302;52.508;13.454;2023-12-14T10:15:21;4.20;99.90
6538;DHT22;3302;52.508;13.454;2023-12-14T10:17:53;4.30;99.90
6538;DHT22;3302;52.508;13.454;2023-12-14T10:20:20;4.30;99.90
6538;DHT22;3302;52.508;13.454;2023-12-14T10:22:52;4.20;99.90
6538;DHT22;3302;52.508;13.454;2023-12-14T10:25:18;4.40;99.90
6538;DHT22;3302;52.508;13.454;2023-12-14T10:27:51;4.40;99.90
6538;DHT22;3302;52.508;13.454;2023-12-14T10:30:20;4.40;99.90
6538;DHT22;3302;52.508;13.454;2023-12-14T10:32:48;4.30;99.90
6538;DHT22;3302;52.508;13.454;2023-12-14T10:35:17;4.30;99.90
6538;DHT22;3302;52.508;13.454;2023-12-14T10:37:47;4.30;99.90
6538;DHT22;3302;52.508;13.454;2023-12-14T10:40:15;4.30;99.90
6538;DHT22;3302;52.508;13.454;2023-12-14T10:42:43;4.30;99.90
6538;DHT22;3302;52.508;13.454;2023-12-14T10:45:14;4.30;99.90
6538;DHT22;3302;52.508;13.454;2023-12-14T10:47:45;4.30;99.90
6538;DHT22;3302;52.508;13.454;2023-12-14T10:50:14;4.20;99.90
6538;DHT22;3302;52.508;13.454;2023-12-14T10:52:40;4.20;99.90
6538;DHT22;3302;52.508;13.454;2023-12-14T10:57:59;4.20;99.90
6538;DHT22;3302;52.508;13.454;2023-12-14T11:00:26;4.20;99.90
6538;DHT22;3302;52.508;13.454;2023-12-14T11:02:52;4.20;99.90
6538;DHT22;3302;52.508;13.454;2023-12-14T11:05:18;4.10;99.90
6538;DHT22;3302;52.508;13.454;2023-12-14T11:07:59;4.30;99.90
6538;DHT22;3302;52.508;13.454;2023-12-14T11:10:36;4.30;99.90
6538;DHT22;3302;52.508;13.454;2023-12-14T11:13:06;4.30;99.90
6538;DHT22;3302;52.508;13.454;2023-12-14T11:15:35;4.30;99.90
6538;DHT22;3302;52.508;13.454;2023-12-14T11:23:15;4.40;99.90
6538;DHT22;3302;52.508;13.454;2023-12-14T11:25:43;4.30;99.90
6538;DHT22;3302;52.508;13.454;2023-12-14T11:28:10;4.00;99.90
6538;DHT22;3302;52.508;13.454;2023-12-14T11:30:37;4.30;99.90
6538;DHT22;3302;52.508;13.454;2023-12-14T11:33:03;4.40;99.90
6538;DHT22;3302;52.508;13.454;2023-12-14T11:35:29;4.30;99.90
6538;DHT22;3302;52.508;13.454;2023-12-14T11:37:56;4.20;99.90
6538;DHT22;3302;52.508;13.454;2023-12-14T11:40:28;4.20;99.90
6538;DHT22;3302;52.508;13.454;2023-12-14T11:43:02;4.50;99.90
6538;DHT22;3302;52.508;13.454;2023-12-14T11:45:34;4.30;99.90
6538;DHT22;3302;52.508;13.454;2023-12-14T11:48:00;4.20;99.90
6538;DHT22;3302;52.508;13.454;2023-12-14T11:50:27;4.00;99.90
6538;DHT22;3302;52.508;13.454;2023-12-14T11:52:53;4.20;99.90
6538;DHT22;3302;52.508;13.454;2023-12-14T11:55:19;4.30;99.90
6538;DHT22;3302;52.508;13.454;2023-12-14T11:57:47;4.40;99.90
6538;DHT22;3302;52.508;13.454;2023-12-14T12:00:14;4.50;99.90
6538;DHT22;3302;52.508;13.454;2023-12-14T12:02:40;4.60;99.90
6538;DHT22;3302;52.508;13.454;2023-12-14T12:05:09;4.40;99.90
6538;DHT22;3302;52.508;13.454;2023-12-14T12:07:39;4.40;99.90
6538;DHT22;3302;52.508;13.454;2023-12-14T12:10:10;4.50;99.90
6538;DHT22;3302;52.508;13.454;2023-12-14T12:12:36;4.40;99.90
6538;DHT22;3302;52.508;13.454;2023-12-14T12:15:03;4.30;99.90
6538;DHT22;3302;52.508;13.454;2023-12-14T12:17:29;4.30;99.90
6538;DHT22;3302;52.508;13.454;2023-12-14T12:19:55;4.30;99.90
6538;DHT22;3302;52.508;13.454;2023-12-14T12:22:20;4.20;99.90
6538;DHT22;3302;52.508;13.454;2023-12-14T12:24:46;4.30;99.90
6538;DHT22;3302;52.508;13.454;2023-12-14T12:27:12;4.20;99.90
6538;DHT22;3302;52.508;13.454;2023-12-14T12:29:38;4.20;99.90
6538;DHT22;3302;52.508;13.454;2023-12-14T12:32:04;4.20;99.90
6538;DHT22;3302;52.508;13.454;2023-12-14T12:34:29;4.30;99.90
6538;DHT22;3302;52.508;13.454;2023-12-14T12:36:55;4.40;99.90
6538;DHT22;3302;52.508;13.454;2023-12-14T12:39:23;4.50;99.90
6538;DHT22;3302;52.508;13.454;2023-12-14T12:41:48;4.20;99.90
6538;DHT22;3302;52.508;13.454;2023-12-14T12:44:14;4.20;99.90
6538;DHT22;3302;52.508;13.454;2023-12-14T12:46:40;4.10;99.90
6538;DHT22;3302;52.508;13.454;2023-12-14T12:49:06;4.20;99.90
6538;DHT22;3302;52.508;13.454;2023-12-14T12:51:32;4.20;99.90
6538;DHT22;3302;52.508;13.454;2023-12-14T12:53:58;4.10;99.90
6538;DHT22;3302;52.508;13.454;2023-12-14T12:56:28;4.10;99.90
6538;DHT22;3302;52.508;13.454;2023-12-14T12:58:54;4.10;99.90
6538;DHT22;3302;52.508;13.454;2023-12-14T13:01:21;4.20;99.90
6538;DHT22;3302;52.508;13.454;2023-12-14T13:03:53;4.10;99.90
6538;DHT22;3302;52.508;13.454;2023-12-14T13:06:20;4.20;99.90
6538;DHT22;3302;52.508;13.454;2023-12-14T13:08:46;4.10;99.90
6538;DHT22;3302;52.508;13.454;2023-12-14T13:11:12;4.20;99.90
6538;DHT22;3302;52.508;13.454;2023-12-14T13:13:38;4.20;99.90
6538;DHT22;3302;52.508;13.454;2023-12-14T13:16:05;4.10;99.90
6538;DHT22;3302;52.508;13.454;2023-12-14T13:18:30;4.10;99.90
6538;DHT22;3302;52.508;13.454;2023-12-14T13:20:56;4.20;99.90
6538;DHT22;3302;52.508;13.454;2023-12-14T13:23:23;4.10;99.90
6538;DHT22;3302;52.508;13.454;2023-12-14T13:25:49;4.30;99.90
6538;DHT22;3302;52.508;13.454;2023-12-14T13:28:14;4.30;99.90
6538;DHT22;3302;52.508;13.454;2023-12-14T13:30:41;4.30;99.90
6538;DHT22;3302;52.508;13.454;2023-12-14T13:33:07;4.30;99.90
6538;DHT22;3302;52.508;13.454;2023-12-14T13:35:36;4.30;99.90
6538;DHT22;3302;52.508;13.454;2023-12-14T13:38:02;4.30;99.90
6538;DHT22;3302;52.508;13.454;2023-12-14T13:40:28;4.20;99.90
6538;DHT22;3302;52.508;13.454;2023-12-14T13:42:53;4.30;99.90
6538;DHT22;3302;52.508;13.454;2023-12-14T13:45:19;4.30;99.90
6538;DHT22;3302;52.508;13.454;2023-12-14T13:47:45;4.30;99.90
6538;DHT22;3302;52.508;13.454;2023-12-14T13:50:12;4.30;99.90
6538;DHT22;3302;52.508;13.454;2023-12-14T13:52:38;4.30;99.90
6538;DHT22;3302;52.508;13.454;2023-12-14T13:55:04;4.20;99.90
6538;DHT22;3302;52.508;13.454;2023-12-14T13:57:30;4.20;99.90
6538;DHT22;3302;52.508;13.454;2023-12-14T13:59:56;4.10;99.90
6538;DHT22;3302;52.508;13.454;2023-12-14T14:02:22;4.20;99.90
6538;DHT22;3302;52.508;13.454;2023-12-14T14:04:50;4.10;99.90
6538;DHT22;3302;52.508;13.454;2023-12-14T14:07:17;4.10;99.90
6538;DHT22;3302;52.508;13.454;2023-12-14T14:09:43;4.10;99.90
6538;DHT22;3302;52.508;13.454;2023-12-14T14:12:10;4.10;99.90
6538;DHT22;3302;52.508;13.454;2023-12-14T14:14:35;4.10;99.90
6538;DHT22;3302;52.508;13.454;2023-12-14T14:17:01;4.00;99.90
6538;DHT22;3302;52.508;13.454;2023-12-14T14:19:27;4.00;99.90
6538;DHT22;3302;52.508;13.454;2023-12-14T14:21:53;4.00;99.90
6538;DHT22;3302;52.508;13.454;2023-12-14T14:24:19;4.10;99.90
6538;DHT22;3302;52.508;13.454;2023-12-14T14:26:45;4.10;99.90
6538;DHT22;3302;52.508;13.454;2023-12-14T14:29:10;4.10;99.90
6538;DHT22;3302;52.508;13.454;2023-12-14T14:31:37;4.10;99.90
6538;DHT22;3302;52.508;13.454;2023-12-14T14:34:03;4.10;99.90
6538;DHT22;3302;52.508;13.454;2023-12-14T14:36:31;4.10;99.90
6538;DHT22;3302;52.508;13.454;2023-12-14T14:38:57;4.10;99.90
6538;DHT22;3302;52.508;13.454;2023-12-14T14:41:23;4.10;99.90
6538;DHT22;3302;52.508;13.454;2023-12-14T14:43:48;4.10;99.90
6538;DHT22;3302;52.508;13.454;2023-12-14T14:46:14;4.10;99.90
6538;DHT22;3302;52.508;13.454;2023-12-14T14:48:40;4.20;99.90
6538;DHT22;3302;52.508;13.454;2023-12-14T14:51:06;4.10;99.90
6538;DHT22;3302;52.508;13.454;2023-12-14T14:53:32;4.10;99.90
6538;DHT22;3302;52.508;13.454;2023-12-14T14:55:57;4.10;99.90
6538;DHT22;3302;52.508;13.454;2023-12-14T14:58:23;4.10;99.90
6538;DHT22;3302;52.508;13.454;2023-12-14T15:00:49;4.10;99.90
6538;DHT22;3302;52.508;13.454;2023-12-14T15:03:15;4.00;99.90
6538;DHT22;3302;52.508;13.454;2023-12-14T15:05:41;4.10;99.90
6538;DHT22;3302;52.508;13.454;2023-12-14T15:08:07;4.00;99.90
6538;DHT22;3302;52.508;13.454;2023-12-14T15:10:33;4.00;99.90
6538;DHT22;3302;52.508;13.454;2023-12-14T15:12:59;4.20;99.90
6538;DHT22;3302;52.508;13.454;2023-12-14T15:15:25;4.30;99.90
6538;DHT22;3302;52.508;13.454;2023-12-14T15:17:50;4.20;99.90
6538;DHT22;3302;52.508;13.454;2023-12-14T15:20:16;4.20;99.90
6538;DHT22;3302;52.508;13.454;2023-12-14T15:22:42;4.10;99.90
6538;DHT22;3302;52.508;13.454;2023-12-14T15:25:08;4.10;99.90
6538;DHT22;3302;52.508;13.454;2023-12-14T15:27:34;4.30;99.90
6538;DHT22;3302;52.508;13.454;2023-12-14T15:30:00;4.20;99.90
6538;DHT22;3302;52.508;13.454;2023-12-14T15:32:26;4.10;99.90
6538;DHT22;3302;52.508;13.454;2023-12-14T15:34:52;4.10;99.90
6538;DHT22;3302;52.508;13.454;2023-12-14T15:37:18;4.20;99.90
6538;DHT22;3302;52.508;13.454;2023-12-14T15:39:43;4.20;99.90
6538;DHT22;3302;52.508;13.454;2023-12-14T15:42:17;4.20;99.90
6538;DHT22;3302;52.508;13.454;2023-12-14T15:44:43;4.20;99.90
6538;DHT22;3302;52.508;13.454;2023-12-14T15:47:11;4.30;99.90
6538;DHT22;3302;52.508;13.454;2023-12-14T15:49:37;4.10;99.90
6538;DHT22;3302;52.508;13.454;2023-12-14T15:52:03;4.20;99.90
6538;DHT22;3302;52.508;13.454;2023-12-14T15:54:29;4.30;99.90
6538;DHT22;3302;52.508;13.454;2023-12-14T15:56:55;4.30;99.90
6538;DHT22;3302;52.508;13.454;2023-12-14T15:59:21;4.30;99.90
6538;DHT22;3302;52.508;13.454;2023-12-14T16:01:47;4.20;99.90
6538;DHT22;3302;52.508;13.454;2023-12-14T16:04:13;4.20;99.90